Sheridan Park, Washington
Current Conditions -  °F | °C
As of 9:35 PM on Saturday 25 Oct 2014 (Local Time) from KPWT Reporting Station
Scattered Clouds Scattered Clouds  
Wind Chill: 11°   Ceiling: Unl
Heat Index: 11°   Visibility: 10mi
Dew Point:   Wind: 28mph
Humidity: 82%   Direction: 200°SSW
Pressure: 29.59"   Gusts: 38mph
Location:  47.6314°N, 122.638°W
Report Text: KPWT 260435Z AUTO 20024G33KT 10SM SCT120 11/08 A2959 RMK AO1
Loading
Personal Weather Stations






























Interactive Weather Map
Tropical Storm Tracking
New forecast layout! Learn more

10-Day Weather Forecast

Advertisements
Track Severe Weather on mobile